createdAt,value
2022-12-13T00:02:44.124Z,97627.34
2022-12-13T00:05:46.081Z,97635.09
2022-12-13T00:08:47.587Z,97631.53
2022-12-13T00:11:49.576Z,97633.72
2022-12-13T00:14:51.140Z,97643.84
2022-12-13T00:17:52.710Z,97632.81
2022-12-13T00:20:54.223Z,97641.06
2022-12-13T00:23:55.739Z,97644.34
2022-12-13T00:26:57.338Z,97642.44
2022-12-13T00:29:58.795Z,97639.78
2022-12-13T00:33:00.278Z,97635.13
2022-12-13T00:36:03.191Z,97637.59
2022-12-13T00:39:04.712Z,97630.91
2022-12-13T00:42:06.189Z,97639.41
2022-12-13T00:45:07.900Z,97630.72
2022-12-13T00:48:09.379Z,97631.53
2022-12-13T00:51:11.145Z,97626.72
2022-12-13T00:54:12.725Z,97634.50
2022-12-13T00:57:14.162Z,97639.88
2022-12-13T01:00:15.812Z,97646.41
2022-12-13T01:03:20.828Z,97637.59
2022-12-13T01:06:23.404Z,97653.38
2022-12-13T01:09:27.458Z,97650.41
2022-12-13T01:12:29.033Z,97645.28
2022-12-13T01:15:30.608Z,97639.44
2022-12-13T01:18:32.053Z,97644.09
2022-12-13T01:21:33.601Z,97627.56
2022-12-13T01:24:35.082Z,97625.75
2022-12-13T01:27:36.545Z,97614.72
2022-12-13T01:30:38.035Z,97617.81
2022-12-13T01:33:40.035Z,97609.53
2022-12-13T01:36:41.958Z,97610.25
2022-12-13T01:39:43.469Z,97609.53
2022-12-13T01:42:45.012Z,97609.09
2022-12-13T01:45:46.584Z,97610.16
2022-12-13T01:49:19.733Z,97603.53
2022-12-13T01:52:22.200Z,97604.69
2022-12-13T01:55:24.146Z,97598.00
2022-12-13T01:58:25.646Z,97599.44
2022-12-13T02:01:27.230Z,97603.25
2022-12-13T02:04:30.517Z,97605.97
2022-12-13T02:07:32.920Z,97601.56
2022-12-13T02:10:34.488Z,97597.88
2022-12-13T02:13:35.981Z,97602.88
2022-12-13T02:16:48.013Z,97602.16
2022-12-13T02:19:49.621Z,97602.88
2022-12-13T02:23:03.221Z,97600.88
2022-12-13T02:26:13.938Z,97591.50
2022-12-13T02:29:29.988Z,97590.78
2022-12-13T02:32:32.475Z,97586.38
2022-12-13T02:35:42.636Z,97588.72
2022-12-13T02:38:48.556Z,97582.00
2022-12-13T02:41:50.576Z,97583.84
2022-12-13T02:45:03.638Z,97577.13
2022-12-13T02:48:05.260Z,97587.03
2022-12-13T02:51:07.114Z,97587.56
2022-12-13T02:54:08.721Z,97586.72
2022-12-13T02:57:29.359Z,97590.78
2022-12-13T03:00:49.634Z,97588.34
2022-12-13T03:04:10.011Z,97581.97
2022-12-13T03:07:19.585Z,97588.41
2022-12-13T03:10:22.409Z,97584.28
2022-12-13T03:13:38.204Z,97575.94
2022-12-13T03:16:40.635Z,97581.00
2022-12-13T03:19:42.104Z,97586.81
2022-12-13T03:22:43.615Z,97580.75
2022-12-13T03:25:45.514Z,97582.56
2022-12-13T03:28:47.076Z,97587.34
2022-12-13T03:31:48.544Z,97586.94
2022-12-13T03:35:00.495Z,97590.50
2022-12-13T03:38:02.586Z,97591.22
2022-12-13T03:41:05.473Z,97594.16
2022-12-13T03:44:07.465Z,97595.66
2022-12-13T03:47:08.950Z,97588.72
2022-12-13T03:50:26.119Z,97579.91
2022-12-13T03:53:32.764Z,97589.59
2022-12-13T03:56:35.446Z,97590.41
2022-12-13T03:59:36.932Z,97589.22
2022-12-13T04:02:38.454Z,97583.81
2022-12-13T04:05:40.032Z,97584.34
2022-12-13T04:08:41.682Z,97589.81
2022-12-13T04:12:01.790Z,97583.00
2022-12-13T04:15:03.472Z,97576.84
2022-12-13T04:18:05.029Z,97576.78
2022-12-13T04:21:06.500Z,97565.72
2022-12-13T04:24:08.003Z,97571.56
2022-12-13T04:27:09.436Z,97569.53
2022-12-13T04:30:11.045Z,97566.28
2022-12-13T04:33:12.570Z,97569.72
2022-12-13T04:36:32.165Z,97572.25
2022-12-13T04:39:34.767Z,97564.47
2022-12-13T04:42:36.333Z,97562.63
2022-12-13T04:45:37.925Z,97568.34
2022-12-13T04:48:39.433Z,97572.56
2022-12-13T04:51:40.870Z,97561.19
2022-12-13T04:54:42.318Z,97566.59
2022-12-13T04:57:43.879Z,97559.84
2022-12-13T05:00:45.568Z,97556.66
2022-12-13T05:03:47.140Z,97557.22
2022-12-13T05:06:48.588Z,97554.63
2022-12-13T05:09:50.055Z,97557.91
2022-12-13T05:12:51.578Z,97554.84
2022-12-13T05:15:57.035Z,97550.09
2022-12-13T05:18:58.512Z,97544.47
2022-12-13T05:22:01.894Z,97540.03
2022-12-13T05:25:04.394Z,97528.53
2022-12-13T05:28:26.856Z,97530.81
2022-12-13T05:31:27.416Z,97527.28
2022-12-13T05:34:28.959Z,97533.00
2022-12-13T05:37:30.490Z,97528.78
2022-12-13T05:40:36.485Z,97527.97
2022-12-13T05:43:43.237Z,97521.28
2022-12-13T05:46:45.102Z,97523.94
2022-12-13T05:49:46.600Z,97519.13
2022-12-13T05:52:48.104Z,97528.47
2022-12-13T05:55:49.523Z,97522.19
2022-12-13T05:58:53.560Z,97525.31
2022-12-13T06:01:55.296Z,97525.78
2022-12-13T06:04:57.311Z,97527.19
2022-12-13T06:07:59.177Z,97527.91
2022-12-13T06:11:11.148Z,97532.94
2022-12-13T06:14:22.785Z,97533.59
2022-12-13T06:17:25.320Z,97536.09
2022-12-13T06:20:27.903Z,97544.63
2022-12-13T06:23:29.566Z,97545.25
2022-12-13T06:26:31.145Z,97549.47
2022-12-13T06:29:32.646Z,97553.13
2022-12-13T06:32:34.205Z,97551.44
2022-12-13T06:35:41.252Z,97549.19
2022-12-13T06:38:43.828Z,97549.59
2022-12-13T06:41:45.426Z,97549.84
2022-12-13T06:44:46.987Z,97565.84
2022-12-13T06:47:48.533Z,97559.09
2022-12-13T06:50:50.201Z,97557.34
2022-12-13T06:53:51.776Z,97560.63
2022-12-13T06:56:56.634Z,97558.38
2022-12-13T07:00:00.989Z,97566.75
2022-12-13T07:03:02.715Z,97570.66
2022-12-13T07:06:06.700Z,97573.91
2022-12-13T07:09:08.493Z,97568.53
2022-12-13T07:12:09.944Z,97569.06
2022-12-13T07:15:11.579Z,97572.31
2022-12-13T07:18:13.100Z,97574.75
2022-12-13T07:21:21.949Z,97575.63
2022-12-13T07:24:23.846Z,97582.03
2022-12-13T07:27:25.417Z,97580.22
2022-12-13T07:30:27.035Z,97582.84
2022-12-13T07:33:29.931Z,97589.66
2022-12-13T07:36:31.503Z,97587.53
2022-12-13T07:39:33.001Z,97577.31
2022-12-13T07:42:35.808Z,97586.84
2022-12-13T07:45:37.980Z,97573.88
2022-12-13T07:48:39.568Z,97586.19
2022-12-13T07:51:41.013Z,97588.81
2022-12-13T07:54:42.579Z,97580.06
2022-12-13T07:57:44.603Z,97587.69
2022-12-13T08:00:54.535Z,97583.44
2022-12-13T08:03:56.505Z,97583.19
2022-12-13T08:06:57.992Z,97583.97
2022-12-13T08:10:02.563Z,97592.75
2022-12-13T08:13:07.443Z,97594.53
2022-12-13T08:16:28.262Z,97591.41
2022-12-13T08:19:30.547Z,97591.78
2022-12-13T08:22:36.059Z,97585.41
2022-12-13T08:25:47.162Z,97594.97
2022-12-13T08:28:53.243Z,97599.38
2022-12-13T08:31:54.697Z,97598.84
2022-12-13T08:34:56.518Z,97587.53
2022-12-13T08:37:58.250Z,97588.41
2022-12-13T08:41:02.796Z,97585.22
2022-12-13T08:44:04.336Z,97586.41
2022-12-13T08:47:06.003Z,97571.72
2022-12-13T08:50:07.678Z,97568.94
2022-12-13T08:53:09.243Z,97566.38
2022-12-13T08:56:11.099Z,97570.22
2022-12-13T08:59:12.698Z,97565.75
2022-12-13T09:02:17.866Z,97556.88
2022-12-13T09:05:33.658Z,97566.31
2022-12-13T09:08:37.837Z,97568.69
2022-12-13T09:11:40.860Z,97572.00
2022-12-13T09:14:45.329Z,97567.56
2022-12-13T09:17:52.395Z,97570.78
2022-12-13T09:20:54.405Z,97575.34
2022-12-13T09:24:23.581Z,97579.81
2022-12-13T09:27:28.668Z,97577.25
2022-12-13T09:30:31.433Z,97578.19
2022-12-13T09:33:41.600Z,97575.59
2022-12-13T09:36:43.429Z,97572.56
2022-12-13T09:39:44.976Z,97575.56
2022-12-13T09:42:48.190Z,97574.91
2022-12-13T09:45:50.573Z,97567.53
2022-12-13T09:49:01.845Z,97568.97
2022-12-13T09:52:11.265Z,97572.41
2022-12-13T09:55:16.417Z,97574.69
2022-12-13T09:58:18.430Z,97581.63
2022-12-13T10:01:22.640Z,97568.78
2022-12-13T10:04:25.261Z,97566.47
2022-12-13T10:07:26.840Z,97553.44
2022-12-13T10:10:28.624Z,97547.31
2022-12-13T10:13:38.984Z,97550.19
2022-12-13T10:16:44.980Z,97551.59
2022-12-13T10:19:47.348Z,97542.69
2022-12-13T10:23:14.962Z,97542.09
2022-12-13T10:26:14.869Z,97543.69
2022-12-13T10:29:26.219Z,97547.94
2022-12-13T10:32:27.940Z,97538.81
2022-12-13T10:35:30.437Z,97542.28
2022-12-13T10:38:32.570Z,97539.94
2022-12-13T10:41:37.638Z,97538.94
2022-12-13T10:44:39.181Z,97538.56
2022-12-13T10:47:41.920Z,97536.09
2022-12-13T10:50:43.494Z,97536.34
2022-12-13T10:54:05.326Z,97537.09
2022-12-13T10:57:06.886Z,97537.69
2022-12-13T11:00:28.411Z,97535.44
2022-12-13T11:03:31.605Z,97527.41
2022-12-13T11:06:43.723Z,97528.91
2022-12-13T11:09:52.442Z,97522.59
2022-12-13T11:12:59.416Z,97523.56
2022-12-13T11:16:01.810Z,97524.63
2022-12-13T11:19:04.959Z,97530.59
2022-12-13T11:22:07.565Z,97524.50
2022-12-13T11:25:09.247Z,97517.06
2022-12-13T11:28:37.604Z,97517.81
2022-12-13T11:31:56.986Z,97518.09
2022-12-13T11:35:11.606Z,97512.28
2022-12-13T11:38:13.164Z,97508.91
2022-12-13T11:41:31.708Z,97506.69
2022-12-13T11:44:48.080Z,97511.91
2022-12-13T11:47:58.165Z,97506.06
2022-12-13T11:51:00.192Z,97499.22
2022-12-13T11:54:03.496Z,97501.91
2022-12-13T11:57:08.150Z,97499.34
2022-12-13T12:00:16.251Z,97497.53
2022-12-13T12:03:45.900Z,97502.84
2022-12-13T12:06:55.859Z,97493.66
2022-12-13T12:09:58.675Z,97483.38
2022-12-13T12:13:23.506Z,97482.81
2022-12-13T12:16:36.675Z,97474.31
2022-12-13T12:19:38.773Z,97467.63
2022-12-13T12:22:52.718Z,97476.44
2022-12-13T12:25:59.177Z,97467.13
2022-12-13T12:29:01.421Z,97467.19
2022-12-13T12:32:16.584Z,97466.38
2022-12-13T12:35:21.409Z,97464.00
2022-12-13T12:38:23.327Z,97457.16
2022-12-13T12:41:45.709Z,97458.56
2022-12-13T12:44:50.654Z,97455.44
2022-12-13T12:48:46.353Z,97453.81
2022-12-13T12:51:20.956Z,97452.97
2022-12-13T12:54:32.193Z,97451.34
2022-12-13T12:57:39.629Z,97451.47
2022-12-13T13:00:43.859Z,97435.19
2022-12-13T13:03:45.476Z,97424.16
2022-12-13T13:06:49.334Z,97420.88
2022-12-13T13:09:51.708Z,97418.31
2022-12-13T13:13:11.244Z,97428.75
2022-12-13T13:16:33.733Z,97425.41
2022-12-13T13:19:35.215Z,97432.25
2022-12-13T13:22:42.883Z,97431.44
2022-12-13T13:26:15.863Z,97436.34
2022-12-13T13:29:32.029Z,97435.28
2022-12-13T13:32:33.542Z,97446.41
2022-12-13T13:35:38.157Z,97449.91
2022-12-13T13:38:51.569Z,97449.81
2022-12-13T13:41:57.111Z,97452.47
2022-12-13T13:45:01.693Z,97438.78
2022-12-13T13:48:26.777Z,97445.53
2022-12-13T13:51:28.328Z,97435.97
